METAR Data
IDs: Format: Raw Decoded Include TAF

Data at: 1345 UTC 21 Apr 2021

METAR for:KICL (Clarinda/Schenck Fld, IA, US)
Text:KICL 211335Z AUTO 31012G18KT 10SM FEW020 02/M01 A3026 RMK AO2
Temperature: 2.0°C ( 36°F)
Dewpoint: -1.0°C ( 30°F) [RH = 80%]
Pressure (altimeter):30.26 inches Hg (1024.8 mb)
Winds:from the NW (310 degrees) at 14 MPH (12 knots; 6.2 m/s) gusting to 21 MPH (18 knots; 9.3 m/s)
Visibility:10 or more sm (16+ km)
Ceiling:at least 12,000 feet AGL
Clouds: few clouds at 2000 feet AGL
QC Flag:automated observation with no human augmentation